Time;durP1;ratioP1;P1;durP2;ratioP2;P2;SDS_P1;SDS_P2;PMS_P1;PMS_P2;Temp;Humidity;BMP_temperature;BMP_pressure;BME280_temperature;BME280_humidity;BME280_pressure;Samples;Min_cycle;Max_cycle;Signal;HPM_P1;HPM_P2
2023/12/22 11:19:56;;;;;;;9.07;1.60;;;8.80;99.30;;;;;;20984346;28;20535;-70
2023/12/22 11:30:01;;;;;;;6.37;2.37;;;8.70;99.60;;;;;;20982187;28;20213;-70
2023/12/22 11:40:03;;;;;;;8.03;3.07;;;;;;;;;;20981905;28;20244;-70
2023/12/22 11:50:09;;;;;;;8.07;3.00;;;8.80;99.90;;;;;;20977390;28;20207;-70
2023/12/22 12:00:23;;;;;;;10.93;3.23;;;8.70;99.90;;;;;;20979813;28;20646;-70
2023/12/22 12:10:35;;;;;;;11.07;3.47;;;8.70;99.90;;;;;;20979728;28;20332;-70
2023/12/22 12:20:38;;;;;;;10.23;2.70;;;8.80;99.90;;;;;;20977658;28;20220;-70
2023/12/22 12:30:41;;;;;;;8.97;2.50;;;9.00;99.90;;;;;;20927824;28;20283;-68
2023/12/22 12:40:45;;;;;;;9.07;2.60;;;8.90;99.90;;;;;;20921715;28;20208;-70
2023/12/22 12:50:47;;;;;;;9.40;2.23;;;;;;;;;;20921871;28;20228;-70
2023/12/22 13:10:32;;;;;;;7.13;2.17;;;;;;;;;;21151871;27;20562;-70
2023/12/22 13:20:35;;;;;;;6.80;2.03;;;;;;;;;;21150995;28;20218;-71
2023/12/22 13:40:12;;;;;;;6.30;2.03;;;8.60;99.90;;;;;;21151903;27;20554;-72
2023/12/22 13:50:18;;;;;;;2.47;1.37;;;8.70;99.90;;;;;;21151288;28;20209;-70
2023/12/22 14:00:21;;;;;;;6.27;1.60;;;;;;;;;;21151087;28;20263;-70
2023/12/22 14:10:23;;;;;;;2.93;1.17;;;;;;;;;;21149826;28;20543;-70
2023/12/22 14:20:26;;;;;;;3.17;1.37;;;;;;;;;;21149310;28;20600;-70
2023/12/22 14:30:28;;;;;;;1.47;1.07;;;;;;;;;;21148803;28;20612;-70
2023/12/22 14:40:30;;;;;;;1.13;1.00;;;;;;;;;;21147514;28;20234;-71
2023/12/22 14:50:32;;;;;;;2.90;1.00;;;;;;;;;;21096248;28;20208;-71
2023/12/22 15:00:34;;;;;;;1.07;0.97;;;;;;;;;;21090274;28;20558;-70
2023/12/22 15:10:37;;;;;;;3.53;1.00;;;;;;;;;;21088857;28;20251;-70
2023/12/22 15:20:39;;;;;;;1.00;1.00;;;;;;;;;;21088350;28;20230;-70
2023/12/22 15:30:42;;;;;;;2.17;1.10;;;;;;;;;;21088666;28;20441;-71
2023/12/22 15:40:44;;;;;;;2.87;1.13;;;;;;;;;;21085361;28;20208;-70
2023/12/22 15:50:47;;;;;;;3.53;1.63;;;;;;;;;;21085871;28;20240;-70
2023/12/22 16:00:49;;;;;;;2.60;1.10;;;;;;;;;;21084385;28;20207;-70
2023/12/22 16:10:54;;;;;;;1.17;1.00;;;;;;;;;;21085183;28;20226;-70
2023/12/22 16:20:56;;;;;;;2.07;1.03;;;;;;;;;;21083474;28;20207;-70
2023/12/22 16:30:59;;;;;;;2.03;1.10;;;;;;;;;;21082490;28;20243;-71
2023/12/22 16:41:05;;;;;;;2.70;1.90;;;9.40;99.90;;;;;;21082053;28;20243;-70
2023/12/22 16:51:08;;;;;;;4.40;2.40;;;;;;;;;;21081053;28;20256;-70
2023/12/22 17:01:10;;;;;;;3.17;1.87;;;;;;;;;;21080795;28;20557;-70
2023/12/22 17:11:32;;;;;;;1.90;1.30;;;;;;;;;;21079232;28;20235;-70
2023/12/22 17:21:36;;;;;;;0.90;0.90;;;;;;;;;;21079266;28;20215;-70
2023/12/22 17:31:39;;;;;;;2.87;1.67;;;;;;;;;;21077716;28;20326;-70
2023/12/22 17:41:42;;;;;;;3.17;1.20;;;;;;;;;;21079974;28;20542;-71
2023/12/22 17:51:45;;;;;;;1.03;0.93;;;;;;;;;;21078495;28;20311;-71
2023/12/22 18:01:49;;;;;;;1.07;0.93;;;;;;;;;;21077588;28;20290;-70
2023/12/22 18:11:51;;;;;;;1.00;0.90;;;;;;;;;;21077541;28;20234;-70
2023/12/22 18:21:54;;;;;;;2.70;1.20;;;;;;;;;;21084708;28;20208;-70
2023/12/22 18:31:56;;;;;;;1.47;1.00;;;;;;;;;;21091750;28;20239;-70
2023/12/22 18:41:59;;;;;;;1.10;1.00;;;;;;;;;;21091936;28;20204;-70
2023/12/22 18:52:02;;;;;;;1.87;0.93;;;;;;;;;;21090475;28;20241;-70
2023/12/22 19:02:05;;;;;;;1.43;1.00;;;;;;;;;;21089751;28;20259;-70
2023/12/22 19:12:27;;;;;;;0.80;0.80;;;;;;;;;;21089332;28;20234;-70
2023/12/22 19:22:29;;;;;;;1.10;0.87;;;;;;;;;;21088160;28;20311;-70
2023/12/22 19:32:31;;;;;;;1.40;0.70;;;;;;;;;;21086038;28;20242;-70
2023/12/22 19:42:33;;;;;;;0.83;0.70;;;;;;;;;;21087255;28;20705;-70
2023/12/22 19:52:36;;;;;;;1.90;1.00;;;;;;;;;;21085982;28;20322;-70
2023/12/22 20:02:38;;;;;;;1.73;1.40;;;;;;;;;;21084766;28;20209;-71
2023/12/22 20:12:43;;;;;;;2.40;1.10;;;;;;;;;;21084669;28;20326;-70
2023/12/22 20:22:45;;;;;;;0.90;0.90;;;;;;;;;;21083491;28;20263;-70
2023/12/22 20:32:47;;;;;;;2.83;0.97;;;;;;;;;;21082361;28;20239;-70
2023/12/22 20:42:50;;;;;;;0.80;0.80;;;;;;;;;;21082704;28;20212;-70
2023/12/22 20:52:54;;;;;;;1.87;1.03;;;;;;;;;;21081046;28;20236;-70
2023/12/22 21:02:58;;;;;;;1.63;1.07;;;;;;;;;;21080544;28;20207;-70
2023/12/22 21:13:00;;;;;;;3.43;1.33;;;;;;;;;;21080541;28;20252;-71
2023/12/22 21:26:18;;;;;;;2.30;1.10;;;9.40;99.90;;;;;;21152805;27;20566;-70
2023/12/22 21:36:22;;;;;;;2.63;1.43;;;9.60;99.90;;;;;;21151504;28;20202;-71
2023/12/22 21:46:24;;;;;;;1.50;1.10;;;;;;;;;;21150870;28;20220;-71
2023/12/22 21:56:26;;;;;;;2.97;1.23;;;;;;;;;;21150307;28;20236;-71
2023/12/22 22:06:29;;;;;;;1.83;1.30;;;;;;;;;;21149072;28;20213;-70
2023/12/22 22:16:31;;;;;;;1.80;1.23;;;;;;;;;;21147999;28;20307;-70
2023/12/22 22:26:33;;;;;;;1.97;1.20;;;;;;;;;;21147903;28;20682;-71
2023/12/22 22:36:36;;;;;;;2.50;1.30;;;;;;;;;;21095582;28;20227;-71
2023/12/22 22:46:38;;;;;;;3.03;1.23;;;;;;;;;;21089927;28;20297;-70
2023/12/22 22:56:40;;;;;;;3.23;1.20;;;;;;;;;;21089320;28;20281;-71
2023/12/22 23:06:44;;;;;;;1.70;1.10;;;;;;;;;;21088072;28;20204;-71
2023/12/22 23:16:46;;;;;;;2.77;1.40;;;;;;;;;;21087177;28;20235;-70
